Time;durP1;ratioP1;P1;durP2;ratioP2;P2;SDS_P1;SDS_P2;PMS_P1;PMS_P2;Temp;Humidity;BMP_temperature;BMP_pressure;BME280_temperature;BME280_humidity;BME280_pressure;Samples;Min_cycle;Max_cycle;Signal;HPM_P1;HPM_P2
2022/04/14 00:01:11;;;;;;;5.47;1.75;;;;;;;10.66;40.98;100172.03;3148986;28;20101;-66
2022/04/14 00:02:42;;;;;;;5.25;2.03;;;;;;;10.65;41.07;100171.19;3152328;28;20052;-66
2022/04/14 00:04:15;;;;;;;3.28;1.90;;;;;;;10.64;41.03;100166.88;3151374;28;20163;-66
2022/04/14 00:05:47;;;;;;;10.23;2.10;;;;;;;10.65;41.22;100170.34;3144336;28;20055;-67
2022/04/14 00:07:21;;;;;;;4.30;1.60;;;;;;;10.65;41.20;100167.75;3150278;28;20131;-66
2022/04/14 00:08:53;;;;;;;4.18;1.67;;;;;;;10.65;41.19;100162.53;3144554;28;20048;-67
2022/04/14 00:10:25;;;;;;;4.55;1.60;;;;;;;10.62;40.99;100158.31;3142761;28;20052;-67
2022/04/14 00:11:57;;;;;;;4.78;1.75;;;;;;;10.63;41.17;100162.59;3145125;28;20048;-69
2022/04/14 00:13:28;;;;;;;2.38;1.40;;;;;;;10.52;41.11;100145.69;3142595;28;20056;-67
2022/04/14 00:15:02;;;;;;;3.30;1.48;;;;;;;10.61;40.94;100161.78;3144864;28;20048;-67
2022/04/14 00:16:34;;;;;;;7.78;2.13;;;;;;;10.60;40.93;100173.13;3147405;28;20469;-66
2022/04/14 00:18:07;;;;;;;4.90;2.13;;;;;;;10.56;41.13;100175.91;3142748;28;20057;-66
2022/04/14 00:19:41;;;;;;;3.95;1.42;;;;;;;10.50;41.26;100166.59;3151851;28;20056;-66
2022/04/14 00:21:13;;;;;;;5.47;2.22;;;;;;;10.51;41.21;100172.66;3146659;28;20122;-66
2022/04/14 00:22:48;;;;;;;4.05;1.50;;;;;;;10.50;41.27;100170.94;3150875;28;20110;-67
2022/04/14 00:24:19;;;;;;;5.55;1.77;;;;;;;10.48;41.30;100171.84;3147706;28;20079;-68
2022/04/14 00:25:51;;;;;;;6.38;2.40;;;;;;;10.45;41.47;100171.13;3148566;28;20048;-67
2022/04/14 00:27:24;;;;;;;3.72;2.13;;;;;;;10.41;41.57;100162.59;3152342;28;20056;-68
2022/04/14 00:30:42;;;;;;;8.40;2.38;;;;;;;10.41;41.76;100166.94;3150890;28;20057;-67
2022/04/14 00:32:14;;;;;;;5.78;2.15;;;;;;;10.40;41.81;100175.66;3147709;28;20481;-67
2022/04/14 00:33:46;;;;;;;5.70;2.22;;;;;;;10.37;41.94;100176.63;3144651;28;20109;-67
2022/04/14 00:35:18;;;;;;;6.32;2.30;;;;;;;10.37;42.23;100178.38;3148803;28;20048;-67
2022/04/14 00:36:50;;;;;;;7.22;2.25;;;;;;;10.34;42.34;100181.94;3157764;28;20052;-67
2022/04/14 00:38:24;;;;;;;4.38;2.35;;;;;;;10.33;42.50;100184.63;3154525;28;20052;-67
2022/04/14 00:39:56;;;;;;;5.80;2.72;;;;;;;10.27;42.62;100174.44;3158916;28;20657;-67
2022/04/14 00:41:28;;;;;;;6.63;2.67;;;;;;;10.26;42.67;100181.34;3156614;28;20055;-67
2022/04/14 00:43:00;;;;;;;6.18;2.53;;;;;;;10.21;42.80;100181.53;3156912;28;20312;-67
2022/04/14 00:44:35;;;;;;;5.05;2.55;;;;;;;10.22;42.81;100185.81;3154178;28;20511;-68
2022/04/14 00:46:08;;;;;;;3.95;2.13;;;;;;;10.20;42.84;100189.38;3155055;28;20048;-67
2022/04/14 00:47:40;;;;;;;4.25;2.50;;;;;;;10.17;42.96;100181.69;3158492;28;20660;-67
2022/04/14 00:49:12;;;;;;;4.97;2.05;;;;;;;10.16;43.17;100182.59;3152897;28;20058;-67
2022/04/14 00:50:44;;;;;;;7.47;2.55;;;;;;;10.14;42.98;100189.63;3154395;28;20547;-67
2022/04/14 00:52:16;;;;;;;7.72;2.90;;;;;;;10.12;43.50;100183.63;3151026;28;20464;-67
2022/04/14 00:53:50;;;;;;;8.60;2.63;;;;;;;10.08;43.52;100184.63;3159227;28;20090;-68
2022/04/14 00:55:22;;;;;;;4.28;2.58;;;;;;;10.06;43.49;100174.31;3150523;28;20481;-67
2022/04/14 00:56:54;;;;;;;6.05;2.60;;;;;;;10.01;43.55;100168.41;3157594;28;20081;-67
2022/04/14 00:58:27;;;;;;;9.68;2.70;;;;;;;10.00;43.80;100177.97;3153414;28;20052;-67
2022/04/14 00:59:59;;;;;;;14.15;3.78;;;;;;;9.99;43.56;100181.47;3156654;28;20469;-67
2022/04/14 01:01:31;;;;;;;15.07;3.20;;;;;;;9.96;44.20;100180.72;3159273;28;20097;-66
2022/04/14 01:03:04;;;;;;;9.05;3.38;;;;;;;9.75;44.35;100161.56;3153684;28;20156;-66
2022/04/14 01:04:37;;;;;;;11.63;2.95;;;;;;;9.85;44.35;100175.06;3150026;28;20222;-67
2022/04/14 01:06:10;;;;;;;18.58;3.25;;;;;;;9.82;44.52;100177.78;3153327;28;20601;-67
2022/04/14 01:07:45;;;;;;;6.22;2.72;;;;;;;9.80;44.50;100189.09;3148421;28;20064;-66
2022/04/14 01:09:20;;;;;;;8.85;3.70;;;;;;;9.82;44.66;100188.19;3153054;28;20060;-67
2022/04/14 01:10:52;;;;;;;8.63;3.28;;;;;;;9.82;44.72;100185.59;3154386;28;20044;-67
2022/04/14 01:12:25;;;;;;;9.10;3.08;;;;;;;9.77;44.70;100191.81;3148948;28;20060;-67
2022/04/14 01:13:57;;;;;;;6.25;2.92;;;;;;;9.78;44.98;100188.28;3147336;28;20045;-67
2022/04/14 01:15:30;;;;;;;4.93;3.20;;;;;;;9.74;44.92;100188.47;3153880;28;20083;-66
2022/04/14 01:17:04;;;;;;;7.43;3.38;;;;;;;9.77;44.92;100191.81;3158007;28;20064;-66
2022/04/14 01:18:36;;;;;;;7.32;4.35;;;;;;;9.76;45.09;100195.31;3154468;28;20118;-67
2022/04/14 01:20:11;;;;;;;8.40;3.47;;;;;;;9.74;45.43;100191.06;3156203;28;20566;-66
2022/04/14 01:21:46;;;;;;;7.25;3.85;;;;;;;9.71;45.46;100184.22;3156567;28;20822;-66
2022/04/14 01:23:25;;;;;;;7.15;4.13;;;;;;;9.74;45.39;100191.91;3156208;28;20109;-66
2022/04/14 01:24:59;;;;;;;8.80;4.03;;;;;;;9.61;45.68;100175.03;3147941;28;20118;-67
2022/04/14 01:26:36;;;;;;;9.00;3.72;;;;;;;9.73;45.65;100197.16;3153125;28;20528;-66
2022/04/14 01:28:08;;;;;;;9.23;4.22;;;;;;;9.68;45.81;100191.28;3158751;28;20503;-66
2022/04/14 01:29:41;;;;;;;7.75;4.78;;;;;;;9.67;46.01;100199.97;3154643;28;20516;-66
2022/04/14 01:31:13;;;;;;;10.75;4.70;;;;;;;9.64;46.07;100200.09;3146922;28;20528;-66
2022/04/14 01:32:45;;;;;;;11.65;5.40;;;;;;;9.60;46.15;100196.75;3152683;28;20056;-67
2022/04/14 01:34:16;;;;;;;11.35;4.40;;;;;;;9.62;46.27;100197.56;3158901;28;20064;-66
2022/04/14 01:35:49;;;;;;;12.73;4.40;;;;;;;9.62;46.18;100196.72;3155567;28;20509;-67
2022/04/14 01:37:20;;;;;;;12.55;4.47;;;;;;;9.46;46.42;100180.78;3154739;28;20413;-66
2022/04/14 01:38:52;;;;;;;14.05;4.75;;;;;;;9.59;46.55;100204.63;3150729;28;20541;-66
2022/04/14 01:40:25;;;;;;;10.80;4.45;;;;;;;9.56;46.78;100200.38;3155001;28;20497;-65
2022/04/14 01:41:58;;;;;;;11.90;5.15;;;;;;;9.52;46.78;100201.34;3158280;28;20147;-66
2022/04/14 01:43:30;;;;;;;12.95;5.10;;;;;;;9.50;46.99;100205.78;3158707;28;20126;-66
2022/04/14 01:45:02;;;;;;;15.13;5.55;;;;;;;9.49;47.18;100207.50;3153748;28;20053;-67
2022/04/14 01:46:34;;;;;;;10.90;6.10;;;;;;;9.47;47.16;100208.50;3151659;28;20052;-66
2022/04/14 01:48:06;;;;;;;9.43;5.07;;;;;;;9.45;47.37;100212.88;3154968;28;20052;-66
2022/04/14 01:49:38;;;;;;;17.80;5.57;;;;;;;9.42;47.54;100216.44;3149515;28;20048;-65
2022/04/14 01:51:11;;;;;;;11.23;5.22;;;;;;;9.38;47.65;100214.84;3158172;28;20093;-66
2022/04/14 01:52:45;;;;;;;12.25;5.70;;;;;;;9.38;47.85;100214.00;3151009;28;20132;-66
2022/04/14 01:54:17;;;;;;;12.93;5.07;;;;;;;9.31;48.18;100205.53;3158377;28;20090;-66
2022/04/14 01:55:50;;;;;;;14.93;5.32;;;;;;;9.31;48.35;100219.38;3158363;28;20051;-66
2022/04/14 01:57:22;;;;;;;13.07;5.82;;;;;;;9.28;48.26;100221.22;3147970;28;20060;-66
2022/04/14 01:58:54;;;;;;;15.30;6.15;;;;;;;9.26;48.48;100220.47;3150929;28;20837;-67
2022/04/14 02:00:27;;;;;;;14.75;6.45;;;;;;;9.11;48.63;100204.47;3148559;28;20548;-67
2022/04/14 02:01:59;;;;;;;14.15;6.10;;;;;;;9.21;48.92;100219.75;3157317;28;20123;-67
2022/04/14 02:03:34;;;;;;;12.82;5.53;;;;;;;9.17;48.99;100231.13;3153585;28;20109;-67
2022/04/14 02:05:07;;;;;;;12.40;5.93;;;;;;;9.14;49.17;100226.91;3149446;28;20048;-67
2022/04/14 02:06:39;;;;;;;12.73;6.35;;;;;;;9.09;49.35;100228.78;3150682;28;20052;-66
2022/04/14 02:08:11;;;;;;;12.02;5.80;;;;;;;8.99;49.65;100229.97;3146499;28;20056;-67
2022/04/14 02:09:43;;;;;;;13.82;6.40;;;;;;;8.89;49.92;100227.66;3150285;28;20052;-66
2022/04/14 02:11:17;;;;;;;15.15;5.88;;;;;;;8.80;50.31;100227.97;3153884;28;20065;-66
2022/04/14 02:12:49;;;;;;;13.40;6.43;;;;;;;8.72;50.53;100237.72;3153086;28;20053;-67
2022/04/14 02:14:21;;;;;;;13.77;6.80;;;;;;;8.64;50.78;100229.34;3156285;28;20062;-66
2022/04/14 02:15:53;;;;;;;13.82;5.80;;;;;;;8.57;50.92;100235.59;3155978;28;20048;-66
2022/04/14 02:17:25;;;;;;;12.55;6.20;;;;;;;8.52;51.10;100237.47;3153969;28;20133;-66
2022/04/14 02:18:57;;;;;;;14.70;6.35;;;;;;;8.46;51.38;100238.53;3157835;28;20048;-66
2022/04/14 02:20:30;;;;;;;16.27;6.18;;;;;;;8.42;51.22;100232.56;3151488;28;20056;-67
2022/04/14 02:22:02;;;;;;;16.23;6.60;;;;;;;8.38;51.39;100228.34;3146573;28;20052;-67
2022/04/14 02:23:34;;;;;;;13.48;6.10;;;;;;;8.39;51.42;100237.84;3150101;28;20048;-66
2022/04/14 02:25:07;;;;;;;14.88;6.82;;;;;;;8.37;51.25;100234.41;3158527;28;20048;-66
2022/04/14 02:26:41;;;;;;;13.88;6.60;;;;;;;8.34;51.33;100242.31;3155108;28;20056;-66
2022/04/14 02:28:16;;;;;;;12.20;6.30;;;;;;;8.28;51.66;100228.63;3157663;28;20441;-67
2022/04/14 02:29:48;;;;;;;12.27;6.28;;;;;;;8.25;51.82;100234.75;3156188;28;20063;-66
2022/04/14 02:31:19;;;;;;;14.57;5.85;;;;;;;8.22;51.87;100237.44;3156116;28;20091;-66
2022/04/14 02:32:52;;;;;;;12.52;6.30;;;;;;;8.16;51.80;100228.09;3154619;28;20079;-66
2022/04/14 02:34:25;;;;;;;14.07;5.95;;;;;;;8.17;51.98;100237.59;3150217;28;20524;-66
2022/04/14 02:35:57;;;;;;;;;;;;;;;8.15;51.75;100244.53;3149444;28;20161;-67
2022/04/14 02:37:29;;;;;;;13.55;6.43;;;;;;;8.12;51.78;100241.19;3151227;28;19973;-66
2022/04/14 02:39:01;;;;;;;15.10;6.45;;;;;;;8.09;51.89;100252.50;3155530;28;20051;-66
2022/04/14 02:40:33;;;;;;;12.70;5.80;;;;;;;7.92;52.18;100226.19;3147198;28;20517;-66
2022/04/14 02:42:07;;;;;;;12.20;6.13;;;;;;;8.05;52.22;100242.28;3146233;28;20127;-67
2022/04/14 02:43:38;;;;;;;13.90;5.72;;;;;;;7.99;52.17;100238.09;3157606;28;20131;-66
2022/04/14 02:45:11;;;;;;;17.27;6.38;;;;;;;8.00;52.49;100242.38;3146136;28;20048;-66
2022/04/14 02:46:45;;;;;;;17.85;6.75;;;;;;;7.97;52.22;100245.91;3148531;28;20076;-67
2022/04/14 02:48:18;;;;;;;21.27;6.65;;;;;;;7.93;52.59;100236.53;3156969;28;20531;-66
2022/04/14 02:49:50;;;;;;;17.52;6.15;;;;;;;7.91;52.56;100240.03;3157407;28;20432;-67
2022/04/14 02:51:21;;;;;;;12.98;5.53;;;;;;;7.88;52.67;100240.13;3148034;28;20059;-67
2022/04/14 02:52:55;;;;;;;13.60;5.55;;;;;;;7.83;52.78;100231.63;3151071;28;20067;-67
2022/04/14 02:54:35;;;;;;;16.63;6.35;;;;;;;7.83;52.95;100247.16;3152216;28;20049;-67
2022/04/14 02:56:09;;;;;;;11.45;6.10;;;;;;;7.80;52.82;100239.47;3147229;28;20047;-66
2022/04/14 02:57:42;;;;;;;12.35;6.25;;;;;;;7.74;53.08;100236.16;3148168;28;20131;-66
2022/04/14 02:59:17;;;;;;;15.10;6.13;;;;;;;7.74;52.96;100237.91;3145803;28;20117;-66
2022/04/14 03:00:49;;;;;;;15.82;5.70;;;;;;;7.68;53.14;100227.69;3155496;28;20093;-66
2022/04/14 03:02:21;;;;;;;14.30;6.20;;;;;;;7.68;53.12;100232.88;3158086;28;20154;-65
2022/04/14 03:03:53;;;;;;;13.05;6.05;;;;;;;7.49;53.27;100210.03;3153013;28;20230;-66
2022/04/14 03:05:26;;;;;;;12.70;5.93;;;;;;;7.63;53.27;100232.13;3157655;28;20053;-66
2022/04/14 03:06:58;;;;;;;19.00;6.75;;;;;;;7.49;53.28;100209.19;3152024;28;20051;-66
2022/04/14 03:08:30;;;;;;;14.63;5.50;;;;;;;7.59;53.40;100227.94;3151220;28;20048;-65
2022/04/14 03:10:03;;;;;;;13.55;5.70;;;;;;;7.59;53.43;100227.94;3149016;28;20560;-66
2022/04/14 03:11:35;;;;;;;17.88;5.55;;;;;;;7.56;53.52;100226.28;3152331;28;20044;-66
2022/04/14 03:13:09;;;;;;;13.88;6.32;;;;;;;7.55;53.56;100227.16;3149847;28;20052;-66
2022/04/14 03:14:41;;;;;;;18.50;5.93;;;;;;;7.42;53.45;100212.81;3151146;28;20573;-66
2022/04/14 03:16:13;;;;;;;9.40;5.13;;;;;;;7.52;53.84;100235.03;3147265;28;20500;-66
2022/04/14 03:17:49;;;;;;;12.98;6.47;;;;;;;7.45;54.15;100239.53;3148945;28;20112;-66
2022/04/14 03:19:21;;;;;;;15.90;6.43;;;;;;;7.45;54.00;100238.66;3145949;28;20048;-66
2022/04/14 03:20:53;;;;;;;14.75;6.40;;;;;;;7.45;53.85;100236.94;3148635;28;20517;-67
2022/04/14 03:22:25;;;;;;;13.60;5.82;;;;;;;7.48;53.90;100242.03;3155804;28;20056;-67
2022/04/14 03:23:57;;;;;;;18.98;6.43;;;;;;;7.48;53.78;100244.63;3146463;28;20045;-67
2022/04/14 03:25:29;;;;;;;14.48;5.70;;;;;;;7.53;53.83;100250.53;3156790;28;20121;-66
2022/04/14 03:27:02;;;;;;;13.15;5.93;;;;;;;7.57;53.76;100248.69;3157787;28;20064;-67
2022/04/14 03:28:36;;;;;;;15.63;6.40;;;;;;;7.61;53.77;100249.50;3146607;28;20152;-67
2022/04/14 03:30:10;;;;;;;13.10;6.30;;;;;;;7.60;53.85;100250.34;3149863;28;20044;-67
2022/04/14 03:31:42;;;;;;;15.15;6.60;;;;;;;7.53;53.99;100255.69;3147572;28;20056;-67
2022/04/14 03:33:14;;;;;;;17.23;6.47;;;;;;;7.44;54.18;100252.50;3148255;28;20048;-67
2022/04/14 03:34:45;;;;;;;9.50;6.28;;;;;;;7.39;54.49;100256.94;3152632;28;20093;-66
2022/04/14 03:36:17;;;;;;;14.77;6.68;;;;;;;7.33;54.59;100257.94;3156438;28;20127;-67
2022/04/14 03:37:50;;;;;;;21.73;7.15;;;;;;;7.26;54.72;100256.41;3149963;28;20074;-66
2022/04/14 03:39:22;;;;;;;17.33;6.90;;;;;;;7.15;54.94;100256.66;3157648;28;20052;-67
2022/04/14 03:40:54;;;;;;;16.50;6.40;;;;;;;7.09;55.15;100258.53;3149221;28;20052;-66
2022/04/14 03:42:27;;;;;;;14.38;6.25;;;;;;;7.04;55.31;100262.09;3149105;28;20112;-66
2022/04/14 03:44:00;;;;;;;15.87;7.00;;;;;;;7.01;55.32;100261.28;3156953;28;20524;-66
2022/04/14 03:45:32;;;;;;;12.60;6.05;;;;;;;6.99;55.35;100263.09;3157468;28;20060;-66
2022/04/14 03:47:04;;;;;;;17.55;7.35;;;;;;;7.00;55.42;100273.38;3155933;28;20056;-66
2022/04/14 03:48:36;;;;;;;13.02;5.95;;;;;;;7.02;55.17;100263.00;3152017;28;20052;-66
2022/04/14 03:50:08;;;;;;;12.80;6.60;;;;;;;7.04;55.22;100267.28;3157140;28;20098;-66
2022/04/14 03:51:39;;;;;;;18.50;7.20;;;;;;;7.07;55.08;100269.78;3149537;28;20091;-65
2022/04/14 03:53:11;;;;;;;15.73;6.78;;;;;;;7.10;54.93;100268.88;3157653;28;20052;-65
2022/04/14 03:54:43;;;;;;;13.48;6.70;;;;;;;7.10;55.13;100275.75;3157072;28;20117;-65
2022/04/14 03:56:15;;;;;;;11.10;6.03;;;;;;;7.09;54.92;100277.50;3157248;28;20056;-66
2022/04/14 03:57:51;;;;;;;11.68;6.20;;;;;;;7.12;54.82;100282.63;3156791;28;20080;-65
2022/04/14 03:59:24;;;;;;;12.48;5.90;;;;;;;7.11;54.91;100283.50;3157575;28;20452;-65
2022/04/14 04:00:56;;;;;;;;;;;;;;;7.10;54.69;100275.75;3158286;28;20047;-67
2022/04/14 04:02:28;;;;;;;14.98;6.05;;;;;;;7.06;54.71;100275.00;3145634;28;19920;-68
2022/04/14 04:04:00;;;;;;;14.93;5.68;;;;;;;7.06;54.79;100275.84;3147559;28;20098;-68
2022/04/14 04:05:32;;;;;;;11.23;6.40;;;;;;;7.08;54.89;100278.41;3150317;28;20052;-66
2022/04/14 04:07:06;;;;;;;15.25;6.93;;;;;;;7.06;54.75;100285.34;3146973;28;20473;-67
2022/04/14 04:08:38;;;;;;;14.23;5.63;;;;;;;7.09;54.62;100285.28;3148223;28;20052;-67
2022/04/14 04:10:10;;;;;;;14.48;5.82;;;;;;;7.09;54.74;100297.38;3145476;28;20055;-67
2022/04/14 04:11:43;;;;;;;13.65;5.57;;;;;;;7.07;54.42;100300.88;3151859;28;20545;-67
2022/04/14 04:13:15;;;;;;;11.15;5.82;;;;;;;7.07;54.16;100303.47;3159662;28;20067;-66
2022/04/14 04:14:49;;;;;;;14.55;5.85;;;;;;;7.10;53.89;100304.25;3158523;28;20071;-67
2022/04/14 04:16:21;;;;;;;16.35;6.28;;;;;;;7.11;53.81;100299.06;3153862;28;20045;-67
2022/04/14 04:17:53;;;;;;;13.02;5.85;;;;;;;7.10;53.55;100302.53;3150095;28;20057;-66
2022/04/14 04:19:25;;;;;;;16.25;6.03;;;;;;;7.10;53.31;100289.59;3149481;28;20052;-67
2022/04/14 04:20:57;;;;;;;18.63;6.85;;;;;;;7.15;53.33;100299.81;3148976;28;20052;-66
2022/04/14 04:22:29;;;;;;;15.68;6.35;;;;;;;7.10;53.63;100299.06;3155264;28;20060;-67
2022/04/14 04:24:02;;;;;;;17.15;6.63;;;;;;;7.03;53.79;100306.13;3159785;28;20463;-67
2022/04/14 04:25:34;;;;;;;13.55;6.28;;;;;;;6.98;53.87;100311.44;3158801;28;20048;-67
2022/04/14 04:27:06;;;;;;;22.63;6.60;;;;;;;6.94;54.00;100307.19;3152638;28;20048;-67
2022/04/14 04:28:38;;;;;;;16.23;6.32;;;;;;;6.94;54.10;100306.34;3154715;28;20095;-67
2022/04/14 04:30:11;;;;;;;13.93;6.28;;;;;;;6.93;54.13;100302.91;3159112;28;20044;-68
2022/04/14 04:31:42;;;;;;;24.42;6.80;;;;;;;6.94;54.17;100314.13;3154964;28;20060;-69
2022/04/14 04:33:14;;;;;;;30.63;7.13;;;;;;;6.82;54.41;100302.28;3157900;28;20779;-73
2022/04/14 04:34:50;;;;;;;15.32;6.57;;;;;;;6.71;54.79;100293.91;3155132;28;20056;-70
2022/04/14 04:36:22;;;;;;;12.18;6.10;;;;;;;6.79;55.02;100312.72;3156068;28;20116;-69
2022/04/14 04:37:54;;;;;;;21.55;6.75;;;;;;;6.73;55.30;100312.84;3150541;28;20048;-70
2022/04/14 04:39:26;;;;;;;17.98;6.78;;;;;;;6.70;55.28;100305.16;3154238;28;20060;-72
2022/04/14 04:40:58;;;;;;;21.10;6.95;;;;;;;6.75;55.18;100316.25;3157198;28;20051;-73
2022/04/14 04:42:31;;;;;;;13.60;6.03;;;;;;;6.76;54.84;100316.22;3154751;28;20517;-73
2022/04/14 04:44:04;;;;;;;72.85;32.38;;;;;;;6.79;54.71;100317.88;3158706;28;20783;-72
2022/04/14 04:45:38;;;;;;;53.88;24.55;;;;;;;6.82;54.23;100323.84;3156602;28;20043;-70
2022/04/14 04:47:09;;;;;;;16.92;6.30;;;;;;;6.87;53.93;100333.28;3149722;28;20048;-71
2022/04/14 04:48:41;;;;;;;11.38;4.97;;;;;;;6.93;53.72;100327.97;3149019;28;20048;-68
2022/04/14 04:50:14;;;;;;;11.70;5.00;;;;;;;6.99;53.46;100323.50;3158196;28;20047;-68
2022/04/14 04:51:45;;;;;;;17.00;6.13;;;;;;;7.02;53.19;100325.16;3152920;28;20049;-69
2022/04/14 04:53:17;;;;;;;19.98;5.80;;;;;;;7.05;52.97;100325.09;3152758;28;20044;-67
2022/04/14 04:54:48;;;;;;;18.83;5.90;;;;;;;7.09;52.81;100320.69;3156500;28;20109;-68
2022/04/14 04:56:20;;;;;;;19.45;6.47;;;;;;;7.15;52.75;100325.72;3155472;28;20043;-68
2022/04/14 04:57:52;;;;;;;18.77;5.65;;;;;;;7.10;52.59;100312.91;3159388;28;20184;-69
2022/04/14 04:59:24;;;;;;;18.70;7.80;;;;;;;7.19;52.81;100317.03;3154134;28;20378;-66
2022/04/14 05:00:57;;;;;;;14.40;6.50;;;;;;;7.20;52.84;100316.97;3157580;28;20441;-66
2022/04/14 05:03:14;;;;;;;19.75;7.25;;;;;;;7.18;53.21;100323.06;3155778;28;20456;-64
2022/04/14 05:04:46;;;;;;;22.05;7.43;;;;;;;7.09;53.35;100315.50;3137041;28;20052;-65
2022/04/14 05:06:18;;;;;;;22.05;7.78;;;;;;;7.16;53.29;100327.41;3147313;28;20045;-66
2022/04/14 05:07:49;;;;;;;26.75;7.50;;;;;;;7.21;53.38;100325.59;3146577;28;20063;-65
2022/04/14 05:09:23;;;;;;;20.10;7.55;;;;;;;7.25;53.25;100328.09;3151707;28;20109;-65
2022/04/14 05:10:55;;;;;;;13.57;6.28;;;;;;;7.30;53.25;100317.59;3150220;28;20057;-66
2022/04/14 05:12:27;;;;;;;14.85;5.75;;;;;;;7.29;52.64;100316.75;3150196;28;20059;-66
2022/04/14 05:13:59;;;;;;;19.27;6.28;;;;;;;7.32;52.66;100318.44;3158543;28;20048;-66
2022/04/14 05:15:31;;;;;;;21.98;7.70;;;;;;;7.36;52.49;100325.22;3151970;28;20198;-66
2022/04/14 05:17:05;;;;;;;17.27;6.82;;;;;;;7.38;52.63;100328.66;3146471;28;20052;-67
2022/04/14 05:18:37;;;;;;;17.98;6.85;;;;;;;7.40;52.67;100326.03;3147347;28;20633;-65
2022/04/14 05:20:10;;;;;;;19.50;7.55;;;;;;;7.43;52.55;100326.81;3154073;28;20048;-67
2022/04/14 05:21:42;;;;;;;21.20;6.88;;;;;;;7.44;52.42;100335.41;3150385;28;20057;-66
2022/04/14 05:23:14;;;;;;;23.30;7.00;;;;;;;7.47;52.54;100327.56;3148127;28;20094;-67
2022/04/14 05:24:54;;;;;;;16.83;7.10;;;;;;;7.39;52.39;100309.59;3146081;28;20052;-80
2022/04/14 05:26:26;;;;;;;19.95;7.28;;;;;;;7.51;52.30;100331.78;3153436;28;20073;-76
2022/04/14 05:28:58;;;;;;;12.77;6.60;;;;;;;7.54;52.31;100329.13;3157447;28;20068;-78
2022/04/14 05:30:43;;;;;;;16.17;6.90;;;;;;;7.63;52.13;100325.44;3130070;28;20544;-78
2022/04/14 05:32:18;;;;;;;15.38;7.00;;;;;;;7.20;52.28;100236.66;3140234;28;20616;-73
2022/04/14 05:34:17;;;;;;;13.68;6.85;;;;;;;7.89;51.97;100327.41;3134716;28;20059;-79
2022/04/14 05:35:49;;;;;;;13.95;6.57;;;;;;;8.05;51.78;100325.28;3140075;28;20122;-72
2022/04/14 05:37:37;;;;;;;17.67;6.85;;;;;;;8.23;51.57;100332.56;3134251;28;20049;-79
2022/04/14 05:39:11;;;;;;;18.27;6.57;;;;;;;8.22;51.17;100299.69;3137415;28;20049;-81
2022/04/14 05:42:29;;;;;;;17.17;6.60;;;;;;;8.77;50.69;100328.47;3128224;28;20427;-77
2022/04/14 05:44:01;;;;;;;16.80;7.13;;;;;;;8.89;50.11;100328.97;3131404;28;20091;-77
2022/04/14 05:45:34;;;;;;;18.88;6.95;;;;;;;9.08;49.90;100331.88;3143285;28;20056;-71
2022/04/14 05:47:06;;;;;;;16.40;7.10;;;;;;;9.16;49.55;100318.63;3142026;28;20072;-72
2022/04/14 05:48:40;;;;;;;20.15;7.38;;;;;;;9.36;49.22;100317.16;3144561;28;20053;-75
2022/04/14 05:50:12;;;;;;;;;;;;;;;9.52;49.18;100326.16;3139984;28;20478;-73
2022/04/14 05:51:44;;;;;;;17.27;6.90;;;;;;;9.62;48.85;100311.97;3134359;28;19925;-74
2022/04/14 05:53:26;;;;;;;21.45;6.75;;;;;;;9.70;48.55;100298.69;3142189;28;20044;-77
2022/04/14 05:55:16;;;;;;;22.48;8.68;;;;;;;9.91;48.23;100302.31;3142426;28;20491;-76
2022/04/14 05:57:22;;;;;;;88.63;40.53;;;;;;;10.33;47.77;100325.19;3136586;28;20052;-76
2022/04/14 05:58:54;;;;;;;33.72;16.50;;;;;;;10.53;47.37;100327.94;3136276;28;20098;-70
2022/04/14 06:00:26;;;;;;;17.73;7.75;;;;;;;10.70;46.96;100325.53;3134373;28;20089;-70
2022/04/14 06:01:57;;;;;;;21.13;7.22;;;;;;;10.90;46.43;100327.38;3146436;28;20099;-71
2022/04/14 06:03:29;;;;;;;23.95;7.60;;;;;;;11.10;46.02;100331.00;3139840;28;20060;-72
2022/04/14 06:05:03;;;;;;;20.05;6.88;;;;;;;11.30;45.53;100331.06;3145707;28;20063;-69
2022/04/14 06:06:34;;;;;;;21.45;7.53;;;;;;;11.45;45.25;100319.19;3145555;28;20578;-69
2022/04/14 06:08:07;;;;;;;21.27;7.63;;;;;;;11.55;44.99;100328.31;3143222;28;20505;-69
2022/04/14 06:09:38;;;;;;;17.63;6.57;;;;;;;11.67;44.49;100323.50;3139427;28;20053;-70
2022/04/14 06:11:10;;;;;;;26.00;7.22;;;;;;;11.51;44.29;100292.84;3136196;28;20057;-66
2022/04/14 06:12:42;;;;;;;18.70;6.75;;;;;;;11.78;44.29;100327.38;3136468;28;20060;-67
2022/04/14 06:14:14;;;;;;;26.20;10.35;;;;;;;11.87;44.07;100328.78;3141650;28;20049;-64
2022/04/14 06:15:46;;;;;;;19.27;6.93;;;;;;;11.94;44.25;100327.59;3143995;28;20071;-67
2022/04/14 06:17:18;;;;;;;22.05;6.60;;;;;;;11.94;43.95;100306.72;3139116;28;20069;-69
2022/04/14 06:18:50;;;;;;;11.32;5.88;;;;;;;12.20;43.56;100323.88;3130895;28;20532;-72
2022/04/14 06:20:23;;;;;;;11.38;5.65;;;;;;;12.29;43.28;100320.00;3129132;28;20053;-72
2022/04/14 06:21:56;;;;;;;14.85;5.10;;;;;;;12.52;42.97;100330.28;3122286;28;20436;-70
2022/04/14 06:23:28;;;;;;;12.77;6.53;;;;;;;12.64;42.63;100335.88;3129489;28;20080;-69
2022/04/14 06:25:00;;;;;;;11.63;6.65;;;;;;;12.73;42.33;100341.53;3133227;28;20106;-69
2022/04/14 06:26:31;;;;;;;12.20;6.35;;;;;;;12.79;42.02;100337.81;3131881;28;20060;-68
2022/04/14 06:28:03;;;;;;;14.82;4.55;;;;;;;12.83;41.71;100338.50;3126811;28;20052;-68
2022/04/14 06:29:35;;;;;;;12.20;4.40;;;;;;;12.90;41.44;100346.00;3129426;28;20310;-67
2022/04/14 06:31:10;;;;;;;12.45;4.85;;;;;;;12.82;41.30;100326.38;3129546;28;20055;-69
2022/04/14 06:32:42;;;;;;;9.48;4.50;;;;;;;13.04;41.20;100353.19;3145430;28;20506;-67
2022/04/14 06:34:14;;;;;;;8.75;4.15;;;;;;;13.06;40.81;100337.44;3138354;28;20051;-69
2022/04/14 06:35:48;;;;;;;10.27;4.78;;;;;;;13.19;40.57;100338.53;3136366;28;20044;-69
2022/04/14 06:37:20;;;;;;;13.13;4.53;;;;;;;13.30;40.53;100343.31;3138775;28;20086;-69
2022/04/14 06:38:52;;;;;;;7.20;4.07;;;;;;;13.32;40.00;100342.31;3141791;28;20044;-69
2022/04/14 06:40:24;;;;;;;11.57;4.25;;;;;;;13.34;39.96;100344.84;3136015;28;20064;-70
2022/04/14 06:41:56;;;;;;;10.13;4.40;;;;;;;13.42;39.80;100337.50;3143918;28;20082;-71
2022/04/14 06:43:28;;;;;;;8.10;4.65;;;;;;;13.50;39.84;100339.75;3137932;28;20114;-68
2022/04/14 06:45:01;;;;;;;10.52;4.10;;;;;;;13.56;39.72;100340.28;3142362;28;20151;-70
2022/04/14 06:46:32;;;;;;;11.88;4.28;;;;;;;13.60;39.62;100341.81;3139608;28;20571;-71
2022/04/14 06:48:07;;;;;;;8.63;4.13;;;;;;;13.68;39.35;100340.63;3138957;28;20656;-70
2022/04/14 06:49:39;;;;;;;12.00;4.18;;;;;;;13.79;39.37;100346.16;3135262;28;20100;-72
2022/04/14 06:51:13;;;;;;;15.82;4.50;;;;;;;13.92;38.80;100352.47;3141415;28;20048;-72
2022/04/14 06:52:45;;;;;;;13.20;4.13;;;;;;;13.99;38.96;100342.53;3142967;28;20056;-73
2022/04/14 06:54:17;;;;;;;9.82;4.60;;;;;;;13.96;38.41;100335.69;3132901;28;20053;-70
2022/04/14 06:55:49;;;;;;;9.02;4.40;;;;;;;13.99;38.18;100348.63;3131242;28;20544;-72
2022/04/14 06:57:21;;;;;;;12.35;3.85;;;;;;;14.01;38.27;100345.94;3139312;28;20102;-69
2022/04/14 06:58:53;;;;;;;7.32;3.85;;;;;;;14.13;38.53;100350.53;3144088;28;20062;-71
2022/04/14 07:00:25;;;;;;;8.25;4.10;;;;;;;14.22;38.06;100355.31;3140599;28;20126;-69
2022/04/14 07:01:57;;;;;;;10.48;4.20;;;;;;;14.27;38.12;100348.06;3144083;28;20052;-69
2022/04/14 07:03:29;;;;;;;16.08;5.07;;;;;;;14.37;37.94;100356.28;3133623;28;20583;-68
2022/04/14 07:05:01;;;;;;;9.52;4.07;;;;;;;14.47;37.62;100364.53;3132900;28;20053;-68
2022/04/14 07:06:35;;;;;;;12.75;4.65;;;;;;;14.55;37.70;100357.13;3135213;28;20444;-77
2022/04/14 07:08:08;;;;;;;16.52;4.32;;;;;;;14.66;37.28;100361.81;3138618;28;20048;-71
2022/04/14 07:09:39;;;;;;;10.38;4.13;;;;;;;14.76;37.23;100360.41;3134499;28;20053;-68
2022/04/14 07:11:11;;;;;;;9.77;4.72;;;;;;;14.83;36.89;100361.75;3144682;28;20114;-69
2022/04/14 07:12:45;;;;;;;8.07;3.47;;;;;;;14.83;36.41;100366.16;3144978;28;20106;-69
2022/04/14 07:14:18;;;;;;;;;;;;;;;14.82;36.66;100365.31;3137470;28;20064;-69
2022/04/14 07:15:50;;;;;;;13.68;4.90;;;;;;;14.88;36.55;100364.13;3142158;28;19989;-69
2022/04/14 07:17:22;;;;;;;9.40;3.97;;;;;;;14.88;36.44;100362.38;3137187;28;20049;-69